Vremea mâine în Sighetu Marmației - Romania

Vrei sa afli care e starea vremii acum in Maramures - Romania? Dorim sa iti furnizam starea vremii pentru Maramures - Romania. Starea vremii Maramures - Romania pentru astazi.

Vremea mâine în Sighetu Marmației

Temperatura minimă:
8.7 °C

Temperatura maximă:
22.3 °C

Mâine va fi: Patchy rain nearby
Precipitații: 87 %
Umiditate: 65%
Viteza maximă vânt mâine:
18 km/h

Evoluția vremii in Sighetu Marmației pe ore mâine

Ora: 03:00
Temperatura: °C
Sansa de precipitatii: %
Ora Descriere Temp Se simte Precipitatii Umiditate Vant
00:00Senin10.5°10.3°0%69%ESE 5 KM/H
01:00Senin10.1°9.5°0%70%ESE 6.1 KM/H
02:00Senin9.7°9.2°0%71%ESE 5.8 KM/H
03:00Senin9.4°8.9°0%73%ESE 5.8 KM/H
04:00Senin9.2°8.6°0%73%SE 5.8 KM/H
05:00Senin8.4°0%73%SE 5.8 KM/H
06:00Senin8.7°8.5°0%74%SE 4.3 KM/H
07:00Senin9.7°9.5°0%74%SE 4.7 KM/H
08:00Senin14.8°15.6°0%67%SSE 3.6 KM/H
09:00Senin17.6°17.6°0%59%SSW 4.3 KM/H
10:00Senin19.2°19.2°0%54%SW 5 KM/H
11:00Senin20.6°20.6°0%50%WSW 6.8 KM/H
12:00Senin21.4°21.4°0%48%WSW 9.4 KM/H
13:00Senin22.1°24.3°0%46%WSW 12.2 KM/H
14:00Patchy rain nearby22.3°24.4°87%47%WSW 14.8 KM/H
15:00Patchy rain nearby22.2°24.4°100%48%WSW 16.2 KM/H
16:00Patchy rain nearby21.5°21.5°100%53%WSW 18 KM/H
17:00Patchy rain nearby20.4°20.4°100%60%W 14 KM/H
18:00Patchy rain nearby19.7°19.7°100%64%W 8.3 KM/H
19:00Patchy rain nearby18.9°18.9°100%71%SSW 4.7 KM/H
20:00Patchy rain nearby13.9°14.4°81%76%SSW 4.3 KM/H
21:00Patchy rain nearby12°12°84%79%ESE 2.9 KM/H
22:00Senin11.1°11.4°0%83%ESE 4 KM/H
23:0010.5°10.5°0%85%ESE 4.7 KM/H




tutorials